createdAt,value
2018-05-31T00:01:06.949Z,82.90
2018-05-31T00:03:34.915Z,83.30
2018-05-31T00:06:02.478Z,83.70
2018-05-31T00:08:30.256Z,84.40
2018-05-31T00:10:57.966Z,84.60
2018-05-31T00:13:26.316Z,85.10
2018-05-31T00:15:54.962Z,85.50
2018-05-31T00:18:22.593Z,85.40
2018-05-31T00:20:50.227Z,85.90
2018-05-31T00:23:19.157Z,86.30
2018-05-31T00:25:46.779Z,86.30
2018-05-31T00:28:15.141Z,86.30
2018-05-31T00:30:42.734Z,86.20
2018-05-31T00:33:11.257Z,86.80
2018-05-31T00:35:38.863Z,86.70
2018-05-31T00:38:07.268Z,88.60
2018-05-31T00:40:34.957Z,88.30
2018-05-31T00:43:02.569Z,88.70
2018-05-31T00:45:30.947Z,89.50
2018-05-31T00:47:59.290Z,89.70
2018-05-31T00:50:27.159Z,89.70
2018-05-31T00:52:54.798Z,90.10
2018-05-31T00:55:34.442Z,90.50
2018-05-31T00:58:02.068Z,90.80
2018-05-31T01:00:29.697Z,90.80
2018-05-31T01:02:57.322Z,90.90
2018-05-31T01:05:25.732Z,91.00
2018-05-31T01:07:53.374Z,91.10
2018-05-31T01:10:20.974Z,91.20
2018-05-31T01:12:49.370Z,91.20
2018-05-31T01:15:17.145Z,91.20
2018-05-31T01:17:44.765Z,91.30
2018-05-31T01:20:14.445Z,91.50
2018-05-31T01:22:42.413Z,91.40
2018-05-31T01:25:10.134Z,91.50
2018-05-31T01:27:37.823Z,91.60
2018-05-31T01:30:05.509Z,91.50
2018-05-31T01:32:33.073Z,91.50
2018-05-31T01:35:00.688Z,91.50
2018-05-31T01:37:29.196Z,92.00
2018-05-31T01:39:57.058Z,91.70
2018-05-31T01:42:25.573Z,91.70
2018-05-31T01:44:53.167Z,91.70
2018-05-31T01:47:20.781Z,91.60
2018-05-31T01:49:48.535Z,91.60
2018-05-31T01:52:16.113Z,91.80
2018-05-31T01:54:43.745Z,91.70
2018-05-31T01:57:11.444Z,91.70
2018-05-31T01:59:39.105Z,91.70
2018-05-31T02:02:06.850Z,91.60
2018-05-31T02:04:35.646Z,91.90
2018-05-31T02:07:03.253Z,91.90
2018-05-31T02:09:30.859Z,91.90
2018-05-31T02:11:58.519Z,92.00
2018-05-31T02:14:26.077Z,92.00
2018-05-31T02:16:53.683Z,92.10
2018-05-31T02:19:21.469Z,92.20
2018-05-31T02:21:49.070Z,92.20
2018-05-31T02:24:16.650Z,92.50
2018-05-31T02:26:44.568Z,92.50
2018-05-31T02:29:12.154Z,92.50
2018-05-31T02:31:39.740Z,92.50
2018-05-31T02:34:08.145Z,92.50
2018-05-31T02:36:35.937Z,92.50
2018-05-31T02:39:03.574Z,92.50
2018-05-31T02:41:31.158Z,92.70
2018-05-31T02:43:58.793Z,92.90
2018-05-31T02:46:26.412Z,92.90
2018-05-31T02:48:54.351Z,92.80
2018-05-31T02:51:21.940Z,93.00
2018-05-31T02:53:49.546Z,93.00
2018-05-31T02:56:17.165Z,93.00
2018-05-31T02:58:45.243Z,93.10
2018-05-31T03:01:13.711Z,93.40
2018-05-31T03:03:42.129Z,93.50
2018-05-31T03:06:10.253Z,93.50
2018-05-31T03:08:37.994Z,93.30
2018-05-31T03:11:06.371Z,93.50
2018-05-31T03:13:34.162Z,93.60
2018-05-31T03:16:01.789Z,93.60
2018-05-31T03:18:29.391Z,93.50
2018-05-31T03:20:57.892Z,94.20
2018-05-31T03:23:25.494Z,93.90
2018-05-31T03:25:54.892Z,93.80
2018-05-31T03:28:22.562Z,93.70
2018-05-31T03:30:50.139Z,93.70
2018-05-31T03:33:17.782Z,93.70
2018-05-31T03:35:45.395Z,93.70
2018-05-31T03:38:13.930Z,93.70
2018-05-31T03:40:42.299Z,93.70
2018-05-31T03:43:09.926Z,93.90
2018-05-31T03:45:37.506Z,93.90
2018-05-31T03:48:05.129Z,93.90
2018-05-31T03:50:33.556Z,94.10
2018-05-31T03:53:01.139Z,94.10
2018-05-31T03:55:29.094Z,93.90
2018-05-31T03:57:56.855Z,93.70
2018-05-31T04:00:24.516Z,93.60
2018-05-31T04:02:52.137Z,93.50
2018-05-31T04:05:19.748Z,93.60
2018-05-31T04:07:47.344Z,93.80
2018-05-31T04:10:15.738Z,93.50
2018-05-31T04:12:43.541Z,93.50
2018-05-31T04:15:11.202Z,93.80
2018-05-31T04:17:38.798Z,93.80
2018-05-31T04:20:06.380Z,93.80
2018-05-31T04:22:34.831Z,93.60
2018-05-31T04:25:02.424Z,93.60
2018-05-31T04:27:30.049Z,93.50
2018-05-31T04:29:58.439Z,93.60
2018-05-31T04:32:27.155Z,93.50
2018-05-31T04:34:54.946Z,93.50
2018-05-31T04:37:22.551Z,93.30
2018-05-31T04:39:50.913Z,93.60
2018-05-31T04:42:18.522Z,93.50
2018-05-31T04:44:46.233Z,93.80
2018-05-31T04:47:14.282Z,93.70
2018-05-31T04:49:42.068Z,93.50
2018-05-31T04:52:10.259Z,93.20
2018-05-31T04:54:39.113Z,93.30
2018-05-31T04:57:06.989Z,93.00
2018-05-31T04:59:34.579Z,92.80
2018-05-31T05:02:03.233Z,92.90
2018-05-31T05:04:31.104Z,92.80
2018-05-31T05:06:58.725Z,93.10
2018-05-31T05:09:26.338Z,92.40
2018-05-31T05:11:53.963Z,92.20
2018-05-31T05:14:22.659Z,91.70
2018-05-31T05:16:50.250Z,92.00
2018-05-31T05:19:19.361Z,91.20
2018-05-31T05:21:47.903Z,90.40
2018-05-31T05:24:16.183Z,90.40
2018-05-31T05:26:43.906Z,90.90
2018-05-31T05:29:11.516Z,89.40
2018-05-31T05:31:39.926Z,86.20
2018-05-31T05:34:08.698Z,88.60
2018-05-31T05:36:36.837Z,88.60
2018-05-31T05:39:06.022Z,88.80
2018-05-31T05:41:33.617Z,88.70
2018-05-31T05:44:01.761Z,88.80
2018-05-31T05:46:29.371Z,88.80
2018-05-31T05:48:59.119Z,88.90
2018-05-31T05:51:26.719Z,88.90
2018-05-31T05:53:54.278Z,87.90
2018-05-31T05:56:21.863Z,88.10
2018-05-31T05:58:49.474Z,88.00
2018-05-31T06:01:17.041Z,87.60
2018-05-31T06:03:45.301Z,87.00
2018-05-31T06:06:12.979Z,86.30
2018-05-31T06:08:40.567Z,86.70
2018-05-31T06:11:09.022Z,85.90
2018-05-31T06:13:36.606Z,85.90
2018-05-31T06:16:05.151Z,85.10
2018-05-31T06:18:32.767Z,85.00
2018-05-31T06:21:00.472Z,82.40
2018-05-31T06:23:28.027Z,81.30
2018-05-31T06:25:55.712Z,78.90
2018-05-31T06:28:23.302Z,78.90
2018-05-31T06:30:51.639Z,75.40
2018-05-31T06:33:19.244Z,75.40
2018-05-31T06:35:47.582Z,75.30
2018-05-31T06:38:15.157Z,75.30
2018-05-31T06:40:42.735Z,72.50
2018-05-31T06:43:10.312Z,73.40
2018-05-31T06:45:37.907Z,74.00
2018-05-31T06:48:06.028Z,73.30
2018-05-31T06:50:34.427Z,70.30
2018-05-31T06:53:03.529Z,68.30
2018-05-31T06:55:31.246Z,68.30
2018-05-31T06:57:58.882Z,66.30
2018-05-31T07:00:26.415Z,66.70
2018-05-31T07:02:54.008Z,64.00
2018-05-31T07:05:21.672Z,64.40
2018-05-31T07:07:49.218Z,61.20
2018-05-31T07:10:16.785Z,62.10
2018-05-31T07:12:44.463Z,64.20
2018-05-31T07:15:12.035Z,60.30
2018-05-31T07:17:39.734Z,60.60
2018-05-31T07:20:07.326Z,60.70
2018-05-31T07:22:34.918Z,60.20
2018-05-31T07:25:02.746Z,60.40
2018-05-31T07:27:30.328Z,60.10
2018-05-31T07:29:57.908Z,58.70
2018-05-31T07:32:25.485Z,58.50
2018-05-31T07:34:53.802Z,55.20
2018-05-31T07:37:21.407Z,55.10
2018-05-31T07:39:48.982Z,55.10
2018-05-31T07:42:17.306Z,55.50
2018-05-31T07:44:44.894Z,55.60
2018-05-31T07:47:13.206Z,56.50
2018-05-31T07:49:40.776Z,56.50
2018-05-31T07:52:08.327Z,56.40
2018-05-31T07:54:36.023Z,54.60
2018-05-31T07:57:03.615Z,55.00
2018-05-31T07:59:31.194Z,53.80
2018-05-31T08:01:59.517Z,52.60
2018-05-31T08:04:27.113Z,52.60
2018-05-31T08:06:54.719Z,52.40
2018-05-31T08:09:22.359Z,52.40
2018-05-31T08:11:50.683Z,51.90
2018-05-31T08:14:18.259Z,51.90
2018-05-31T08:16:45.847Z,50.60
2018-05-31T08:19:14.162Z,51.00
2018-05-31T08:21:41.761Z,50.90
2018-05-31T08:24:09.319Z,50.10
2018-05-31T08:26:37.142Z,48.90
2018-05-31T08:29:04.816Z,49.30
2018-05-31T08:31:32.429Z,48.40
2018-05-31T08:33:59.933Z,47.70
2018-05-31T08:36:27.517Z,48.50
2018-05-31T08:38:55.170Z,49.30
2018-05-31T08:41:22.709Z,48.00
2018-05-31T08:43:50.866Z,47.00
2018-05-31T08:46:18.418Z,46.10
2018-05-31T08:48:45.985Z,45.60
2018-05-31T08:51:13.599Z,44.90
2018-05-31T08:53:41.275Z,45.00
2018-05-31T08:56:09.659Z,44.60
2018-05-31T08:58:38.146Z,44.70
2018-05-31T09:01:06.499Z,43.60
2018-05-31T09:03:34.854Z,44.10
2018-05-31T09:06:03.192Z,44.10
2018-05-31T09:08:30.925Z,44.40
2018-05-31T09:10:59.300Z,45.00
2018-05-31T09:13:27.643Z,45.00
2018-05-31T09:15:55.236Z,45.00
2018-05-31T09:18:24.377Z,43.80
2018-05-31T09:20:52.000Z,43.70
2018-05-31T09:23:20.333Z,42.30
2018-05-31T09:25:48.050Z,42.30
2018-05-31T09:28:16.720Z,43.60
2018-05-31T09:30:45.053Z,42.30
2018-05-31T09:33:12.601Z,42.20
2018-05-31T09:35:40.193Z,43.20
2018-05-31T09:38:07.860Z,42.40
2018-05-31T09:40:35.504Z,42.70
2018-05-31T09:43:03.078Z,42.40
2018-05-31T09:45:30.703Z,41.30
2018-05-31T09:47:58.394Z,42.20
2018-05-31T09:50:25.963Z,41.10
2018-05-31T09:52:53.592Z,43.50
2018-05-31T09:55:21.203Z,41.70
2018-05-31T09:57:49.568Z,40.90
2018-05-31T10:00:17.125Z,40.80
2018-05-31T10:02:44.725Z,41.70
2018-05-31T10:05:12.309Z,42.20
2018-05-31T10:07:39.921Z,41.00
2018-05-31T10:10:08.235Z,40.00
2018-05-31T10:12:35.838Z,40.00
2018-05-31T10:15:03.560Z,39.40
2018-05-31T10:17:31.147Z,42.00
2018-05-31T10:19:58.721Z,41.40
2018-05-31T10:22:27.075Z,39.60
2018-05-31T10:24:54.813Z,38.90
2018-05-31T10:27:22.404Z,40.40
2018-05-31T10:29:49.964Z,40.90
2018-05-31T10:32:17.516Z,40.30
2018-05-31T10:34:45.144Z,39.70
2018-05-31T10:37:12.710Z,39.80
2018-05-31T10:39:40.256Z,40.90
2018-05-31T10:42:07.845Z,42.60
2018-05-31T10:44:35.516Z,39.50
2018-05-31T10:47:03.085Z,40.40
2018-05-31T10:49:30.727Z,38.40
2018-05-31T10:51:58.308Z,39.60
2018-05-31T10:54:25.911Z,38.40
2018-05-31T10:56:53.488Z,39.60
2018-05-31T10:59:21.300Z,38.40
2018-05-31T11:01:48.871Z,38.40
2018-05-31T11:04:17.185Z,36.90
2018-05-31T11:06:44.735Z,36.80
2018-05-31T11:09:12.325Z,36.90
2018-05-31T11:11:39.895Z,36.20
2018-05-31T11:14:07.455Z,35.50
2018-05-31T11:16:35.839Z,36.20
2018-05-31T11:19:03.688Z,36.20
2018-05-31T11:21:31.940Z,36.50
2018-05-31T11:23:59.529Z,37.10
2018-05-31T11:26:27.075Z,39.00
2018-05-31T11:28:54.654Z,38.50
2018-05-31T11:31:22.288Z,39.10
2018-05-31T11:33:49.914Z,37.70
2018-05-31T11:36:18.257Z,36.60
2018-05-31T11:38:45.887Z,36.50
2018-05-31T11:41:13.511Z,36.10
2018-05-31T11:43:41.834Z,37.60
2018-05-31T11:46:09.396Z,37.70
2018-05-31T11:48:36.993Z,37.50
2018-05-31T11:51:05.332Z,36.50
2018-05-31T11:53:33.299Z,36.00
2018-05-31T11:56:00.893Z,35.60
2018-05-31T11:58:28.720Z,37.10
2018-05-31T12:00:56.293Z,38.30
2018-05-31T12:03:23.909Z,38.20
2018-05-31T12:05:51.462Z,36.30
2018-05-31T12:08:21.575Z,37.70
2018-05-31T12:10:49.147Z,37.70
2018-05-31T12:13:16.722Z,38.40
2018-05-31T12:15:44.320Z,38.40
2018-05-31T12:18:12.166Z,38.70
2018-05-31T12:20:40.784Z,38.00
2018-05-31T12:23:08.344Z,38.00
2018-05-31T12:25:36.215Z,39.70
2018-05-31T12:28:03.793Z,38.50
2018-05-31T12:30:31.341Z,38.40
2018-05-31T12:32:59.862Z,38.10
2018-05-31T12:35:27.427Z,38.00
2018-05-31T12:37:54.975Z,41.60
2018-05-31T12:40:22.549Z,42.80
2018-05-31T12:42:50.147Z,42.10
2018-05-31T12:45:17.698Z,44.60
2018-05-31T12:47:45.331Z,42.90
2018-05-31T12:50:12.887Z,43.40
2018-05-31T12:52:40.453Z,44.20
2018-05-31T12:55:08.029Z,44.20
2018-05-31T12:57:35.589Z,41.40
2018-05-31T13:00:03.188Z,36.60
2018-05-31T13:02:30.749Z,37.00
2018-05-31T13:04:58.307Z,37.60
2018-05-31T13:07:26.004Z,38.40
2018-05-31T13:09:53.556Z,37.30
2018-05-31T13:12:21.096Z,36.20
2018-05-31T13:14:49.256Z,36.40
2018-05-31T13:17:16.953Z,37.40
2018-05-31T13:19:44.683Z,38.60
2018-05-31T13:22:13.005Z,38.70
2018-05-31T13:24:40.616Z,38.70
2018-05-31T13:27:08.173Z,40.30
2018-05-31T13:29:36.497Z,41.20
2018-05-31T13:32:04.115Z,41.20
2018-05-31T13:34:32.439Z,42.60
2018-05-31T13:37:00.022Z,42.60
2018-05-31T13:39:32.686Z,40.70
2018-05-31T13:42:04.719Z,40.90
2018-05-31T13:44:32.343Z,40.20
2018-05-31T13:47:03.434Z,42.60
2018-05-31T13:49:35.922Z,42.40
2018-05-31T13:52:04.706Z,42.50
2018-05-31T13:54:34.764Z,42.90
2018-05-31T13:57:05.717Z,42.60
2018-05-31T13:59:34.578Z,42.60
2018-05-31T14:02:03.288Z,42.30
2018-05-31T14:04:33.693Z,43.30
2018-05-31T14:07:02.455Z,43.30
2018-05-31T14:09:35.251Z,43.30
2018-05-31T14:12:03.566Z,44.50
2018-05-31T14:14:31.137Z,44.50
2018-05-31T14:17:01.939Z,45.30
2018-05-31T14:19:31.476Z,44.80
2018-05-31T14:22:00.564Z,44.80
2018-05-31T14:24:31.167Z,45.60
2018-05-31T14:27:03.856Z,45.60
2018-05-31T14:29:34.063Z,46.80
2018-05-31T14:32:06.026Z,47.30
2018-05-31T14:34:36.772Z,47.50
2018-05-31T14:37:05.546Z,47.90
2018-05-31T14:39:36.935Z,48.80
2018-05-31T14:42:04.612Z,48.70
2018-05-31T14:44:32.378Z,46.90
2018-05-31T14:47:00.098Z,48.00
2018-05-31T14:49:27.788Z,48.90
2018-05-31T14:51:55.574Z,47.10
2018-05-31T14:54:23.188Z,44.50
2018-05-31T14:56:51.205Z,45.00
2018-05-31T14:59:19.054Z,45.80
2018-05-31T15:01:46.652Z,44.70
2018-05-31T15:04:14.232Z,44.20
2018-05-31T15:06:42.557Z,43.00
2018-05-31T15:09:10.155Z,43.00
2018-05-31T15:11:37.794Z,44.30
2018-05-31T15:14:05.759Z,45.30
2018-05-31T15:16:33.316Z,46.50
2018-05-31T15:19:00.870Z,45.20
2018-05-31T15:21:28.531Z,47.10
2018-05-31T15:23:56.097Z,48.50
2018-05-31T15:26:23.729Z,48.20
2018-05-31T15:28:51.338Z,49.20
2018-05-31T15:31:18.887Z,49.60
2018-05-31T15:33:46.514Z,50.00
2018-05-31T15:36:14.375Z,51.10
2018-05-31T15:38:41.980Z,50.70
2018-05-31T15:41:09.575Z,51.40
2018-05-31T15:43:37.272Z,51.90
2018-05-31T15:46:04.857Z,50.70
2018-05-31T15:48:32.417Z,50.60
2018-05-31T15:51:00.031Z,50.80
2018-05-31T15:53:27.648Z,51.40
2018-05-31T15:55:55.196Z,50.60
2018-05-31T15:58:22.812Z,51.00
2018-05-31T16:00:50.489Z,51.00
2018-05-31T16:03:18.057Z,51.20
2018-05-31T16:05:45.798Z,51.60
2018-05-31T16:08:13.339Z,51.30
2018-05-31T16:10:41.093Z,51.40
2018-05-31T16:13:09.600Z,52.00
2018-05-31T16:15:37.230Z,52.00
2018-05-31T16:18:05.726Z,51.50
2018-05-31T16:20:33.298Z,51.50
2018-05-31T16:23:00.885Z,52.00
2018-05-31T16:25:28.445Z,51.90
2018-05-31T16:27:56.008Z,52.00
2018-05-31T16:30:23.588Z,52.30
2018-05-31T16:32:51.168Z,52.30
2018-05-31T16:35:19.588Z,53.00
2018-05-31T16:37:47.161Z,53.10
2018-05-31T16:40:14.825Z,52.90
2018-05-31T16:42:42.410Z,52.60
2018-05-31T16:45:11.155Z,52.70
2018-05-31T16:47:39.113Z,53.40
2018-05-31T16:50:06.821Z,53.40
2018-05-31T16:52:34.461Z,53.40
2018-05-31T16:55:02.048Z,53.20
2018-05-31T16:57:30.418Z,53.20
2018-05-31T16:59:58.341Z,53.10
2018-05-31T17:02:25.935Z,53.30
2018-05-31T17:04:53.581Z,53.70
2018-05-31T17:07:21.207Z,53.20
2018-05-31T17:09:48.989Z,52.90
2018-05-31T17:12:17.531Z,53.00
2018-05-31T17:14:46.154Z,53.90
2018-05-31T17:17:15.271Z,53.90
2018-05-31T17:19:43.004Z,54.00
2018-05-31T17:22:10.651Z,53.60
2018-05-31T17:24:38.343Z,53.60
2018-05-31T17:27:06.025Z,54.10
2018-05-31T17:29:33.604Z,53.90
2018-05-31T17:32:02.138Z,54.20
2018-05-31T17:34:29.906Z,54.10
2018-05-31T17:36:58.795Z,54.50
2018-05-31T17:39:26.463Z,54.60
2018-05-31T17:42:20.372Z,54.30
2018-05-31T17:44:48.320Z,54.70
2018-05-31T17:47:16.066Z,54.90
2018-05-31T17:49:43.643Z,54.90
2018-05-31T17:52:11.313Z,55.30
2018-05-31T17:54:38.964Z,55.30
2018-05-31T17:57:06.729Z,55.50
2018-05-31T17:59:34.570Z,55.60
2018-05-31T18:02:03.380Z,55.70
2018-05-31T18:04:31.089Z,56.00
2018-05-31T18:06:58.881Z,56.80
2018-05-31T18:09:26.546Z,56.90
2018-05-31T18:11:54.177Z,57.40
2018-05-31T18:14:22.604Z,58.00
2018-05-31T18:16:50.250Z,58.00
2018-05-31T18:19:18.144Z,58.60
2018-05-31T18:21:46.031Z,58.60
2018-05-31T18:24:14.411Z,58.60
2018-05-31T18:26:42.306Z,58.50
2018-05-31T18:29:09.984Z,59.70
2018-05-31T18:31:37.544Z,60.80
2018-05-31T18:34:05.157Z,62.30
2018-05-31T18:36:32.776Z,62.80
2018-05-31T18:39:00.660Z,62.40
2018-05-31T18:41:28.228Z,62.20
2018-05-31T18:43:55.925Z,63.10
2018-05-31T18:46:24.300Z,63.90
2018-05-31T18:48:51.895Z,63.90
2018-05-31T18:51:20.264Z,63.50
2018-05-31T18:53:48.204Z,60.90
2018-05-31T18:56:17.058Z,62.30
2018-05-31T18:58:53.373Z,62.30
2018-05-31T19:01:21.016Z,63.20
2018-05-31T19:03:49.357Z,63.00
2018-05-31T19:06:17.907Z,62.90
2018-05-31T19:08:46.617Z,62.00
2018-05-31T19:11:14.898Z,62.30
2018-05-31T19:13:48.304Z,61.80
2018-05-31T19:16:15.953Z,62.10
2018-05-31T19:18:49.100Z,61.80
2018-05-31T19:21:17.199Z,62.20
2018-05-31T19:23:45.625Z,63.80
2018-05-31T19:37:46.831Z,66.70
2018-05-31T19:40:14.425Z,66.70
2018-05-31T19:42:48.351Z,66.40
2018-05-31T19:45:16.028Z,66.40
2018-05-31T19:47:43.620Z,66.50
2018-05-31T19:50:11.873Z,66.90
2018-05-31T19:52:45.283Z,66.80
2018-05-31T19:55:12.868Z,66.70
2018-05-31T19:57:46.826Z,66.20
2018-05-31T20:00:20.822Z,66.20
2018-05-31T20:02:54.177Z,65.70
2018-05-31T20:05:22.203Z,65.80
2018-05-31T20:07:49.823Z,65.60
2018-05-31T20:10:18.650Z,66.70
2018-05-31T20:12:46.426Z,66.70
2018-05-31T20:15:14.003Z,66.60
2018-05-31T20:17:42.171Z,66.50
2018-05-31T20:20:09.827Z,66.40
2018-05-31T20:22:37.463Z,66.40
2018-05-31T20:25:05.459Z,66.30
2018-05-31T20:27:33.031Z,66.30
2018-05-31T20:30:00.711Z,66.20
2018-05-31T20:32:28.351Z,67.10
2018-05-31T20:34:56.734Z,68.00
2018-05-31T20:37:25.816Z,66.10
2018-05-31T20:39:57.398Z,66.10
2018-05-31T20:42:25.007Z,66.40
2018-05-31T20:44:52.639Z,67.20
2018-05-31T20:47:20.988Z,67.70
2018-05-31T20:49:48.567Z,67.50
2018-05-31T20:52:16.888Z,67.50
2018-05-31T20:54:44.506Z,67.40
2018-05-31T20:57:12.941Z,67.00
2018-05-31T20:59:41.423Z,67.00
2018-05-31T21:02:09.010Z,67.10
2018-05-31T21:04:37.374Z,67.70
2018-05-31T21:07:05.765Z,67.50
2018-05-31T21:09:33.346Z,67.50
2018-05-31T21:12:01.804Z,67.40
2018-05-31T21:14:30.170Z,67.60
2018-05-31T21:16:59.367Z,67.50
2018-05-31T21:19:27.287Z,67.50
2018-05-31T21:21:54.862Z,67.60
2018-05-31T21:24:22.482Z,68.20
2018-05-31T21:26:50.895Z,68.60
2018-05-31T21:29:19.230Z,68.50
2018-05-31T21:31:46.844Z,70.20
2018-05-31T21:34:14.576Z,72.00
2018-05-31T21:36:42.898Z,73.90
2018-05-31T21:39:10.655Z,73.80
2018-05-31T21:41:38.221Z,74.10
2018-05-31T21:44:06.183Z,73.80
2018-05-31T21:46:34.765Z,73.50
2018-05-31T21:49:02.480Z,73.60
2018-05-31T21:51:30.810Z,73.90
2018-05-31T21:53:59.189Z,73.80
2018-05-31T21:56:26.781Z,73.80
2018-05-31T21:58:55.531Z,75.50
2018-05-31T22:01:23.368Z,75.50
2018-05-31T22:03:50.977Z,76.10
2018-05-31T22:06:18.571Z,76.60
2018-05-31T22:08:46.173Z,76.90
2018-05-31T22:11:13.795Z,76.50
2018-05-31T22:13:42.179Z,76.00
2018-05-31T22:16:09.964Z,76.00
2018-05-31T22:18:37.574Z,76.00
2018-05-31T22:21:05.885Z,76.30
2018-05-31T22:23:33.608Z,76.00
2018-05-31T22:26:01.996Z,77.00
2018-05-31T22:28:30.336Z,78.00
2018-05-31T22:30:57.959Z,77.90
2018-05-31T22:33:25.545Z,78.10
2018-05-31T22:35:53.139Z,78.20
2018-05-31T22:38:20.959Z,77.80
2018-05-31T22:40:48.551Z,77.80
2018-05-31T22:43:16.294Z,77.30
2018-05-31T22:45:43.908Z,77.70
2018-05-31T22:48:12.306Z,79.00
2018-05-31T22:50:39.900Z,78.90
2018-05-31T22:53:07.510Z,79.20
2018-05-31T22:55:35.824Z,79.90
2018-05-31T22:58:03.496Z,80.80
2018-05-31T23:00:31.091Z,80.10
2018-05-31T23:02:58.739Z,80.50
2018-05-31T23:05:26.352Z,80.70
2018-05-31T23:07:54.801Z,80.70
2018-05-31T23:10:22.483Z,80.60
2018-05-31T23:12:50.858Z,80.20
2018-05-31T23:15:19.216Z,80.20
2018-05-31T23:17:48.289Z,80.60
2018-05-31T23:20:15.896Z,80.60
2018-05-31T23:22:44.234Z,80.60
2018-05-31T23:25:11.902Z,80.70
2018-05-31T23:27:41.157Z,80.50
2018-05-31T23:30:08.787Z,81.20
2018-05-31T23:32:36.430Z,80.40
2018-05-31T23:35:04.048Z,80.50
2018-05-31T23:37:31.633Z,80.50
2018-05-31T23:39:59.236Z,80.50
2018-05-31T23:42:27.136Z,80.80
2018-05-31T23:44:54.877Z,81.30
2018-05-31T23:47:22.443Z,81.40
2018-05-31T23:49:50.015Z,81.60
2018-05-31T23:52:17.674Z,82.30
2018-05-31T23:54:45.428Z,83.30
2018-05-31T23:57:12.978Z,84.00
2018-05-31T23:59:40.606Z,84.20
